Time;durP1;ratioP1;P1;durP2;ratioP2;P2;SDS_P1;SDS_P2;PMS_P1;PMS_P2;Temp;Humidity;BMP_temperature;BMP_pressure;BME280_temperature;BME280_humidity;BME280_pressure;Samples;Min_cycle;Max_cycle;Signal;HPM_P1;HPM_P2
2021/12/03 00:01:12;;;;;;;;;;;;;;;3.26;63.31;96936.61;1736540;81;20324;-83
2021/12/03 00:03:39;;;;;;;;;;;;;;;3.27;63.26;96947.33;1731117;82;25602;-83
2021/12/03 00:06:05;;;;;;;;;;;;;;;3.29;63.22;96947.58;1735477;82;22016;-83
2021/12/03 00:08:34;;;;;;;;;;;;;;;3.28;63.14;96948.49;1743265;81;25536;-83
2021/12/03 00:11:02;;;;;;;;;;;;;;;3.32;63.08;96958.19;1724720;81;24471;-83
2021/12/03 00:13:30;;;;;;;;;;;;;;;3.24;62.95;96959.14;1735529;82;20151;-83
2021/12/03 00:15:59;;;;;;;;;;;;;;;3.19;62.85;96962.02;1738235;81;24944;-83
2021/12/03 00:18:34;;;;;;;;;;;;;;;3.16;62.71;96975.61;1691148;83;22838;-82
2021/12/03 00:21:06;;;;;;;;;;;;;;;3.10;62.58;96978.13;1682878;84;26033;-82
2021/12/03 00:23:32;;;;;;;;;;;;;;;3.08;62.48;96983.84;1651352;85;24458;-83
2021/12/03 00:26:01;;;;;;;;;;;;;;;3.02;62.36;96985.52;1684513;84;20291;-84
2021/12/03 00:28:28;;;;;;;;;;;;;;;2.97;62.24;96988.02;1659716;85;25004;-84
2021/12/03 00:30:55;;;;;;;;;;;;;;;2.90;62.12;96988.40;1666345;84;22219;-84
2021/12/03 00:33:25;;;;;;;;;;;;;;;2.88;61.99;96990.27;1663946;85;21308;-84
2021/12/03 00:35:52;;;;;;;;;;;;;;;2.89;61.93;96999.65;1739635;81;24443;-83
2021/12/03 00:38:18;;;;;;;;;;;;;;;2.91;61.89;97001.69;1708112;82;20519;-84
2021/12/03 00:40:48;;;;;;;;;;;;;;;2.95;61.85;97004.44;1738472;82;24868;-83
2021/12/03 00:43:15;;;;;;;;;;;;;;;2.98;61.82;97005.19;1739672;82;21964;-83
2021/12/03 00:45:43;;;;;;;;;;;;;;;3.00;61.81;97014.48;1741708;81;26064;-83
2021/12/03 00:48:10;;;;;;;;;;;;;;;2.91;61.73;97015.90;1738086;82;24371;-84
2021/12/03 00:50:39;;;;;;;;;;;;;;;2.92;61.67;97025.31;1736848;81;20205;-83
2021/12/03 00:53:07;;;;;;;;;;;;;;;2.93;61.60;97026.14;1735126;81;24747;-84
2021/12/03 00:55:33;;;;;;;;;;;;;;;2.91;61.58;97022.36;1739111;82;21999;-84
2021/12/03 00:58:00;;;;;;;;;;;;;;;2.98;61.56;97028.44;1743588;82;26124;-83
2021/12/03 01:00:28;;;;;;;;;;;;;;;3.00;61.52;97042.11;1732778;81;24614;-83
2021/12/03 01:02:56;;;;;;;;;;;;;;;2.97;61.49;97043.57;1738955;81;20341;-83
2021/12/03 01:05:22;;;;;;;;;;;;;;;2.99;61.46;97046.91;1737564;81;24995;-83
2021/12/03 01:07:50;;;;;;;;;;;;;;;2.99;61.43;97043.86;1733731;81;21975;-83
2021/12/03 01:10:20;;;;;;;;;;;;;;;2.98;61.37;97043.48;1736372;82;26073;-83
2021/12/03 01:12:46;;;;;;;;;;;;;;;2.91;61.31;97052.53;1743123;81;24548;-83
2021/12/03 01:15:14;;;;;;;;;;;;;;;2.82;61.22;97052.64;1746285;81;20231;-83
2021/12/03 01:17:40;;;;;;;;;;;;;;;2.76;61.11;97056.05;1698473;83;24748;-83
2021/12/03 01:20:09;;;;;;;;;;;;;;;2.69;61.04;97049.59;1701267;83;21838;-83
2021/12/03 01:22:36;;;;;;;;;;;;;;;2.64;60.98;97043.87;1686970;82;26005;-83
2021/12/03 01:25:03;;;;;;;;;;;;;;;2.56;60.86;97045.65;1682346;83;24667;-84
2021/12/03 01:27:30;;;;;;;;;;;;;;;2.49;60.76;97038.72;1668290;83;20222;-83
2021/12/03 01:29:56;;;;;;;;;;;;;;;2.52;60.69;97059.18;1680751;84;25643;-83
2021/12/03 01:32:30;;;;;;;;;;;;;;;2.48;60.64;97058.17;1689730;82;22758;-84
2021/12/03 01:34:56;;;;;;;;;;;;;;;2.49;60.62;97058.09;1734425;81;26024;-83
2021/12/03 01:37:22;;;;;;;;;;;;;;;2.48;60.61;97060.75;1681412;83;24445;-83
2021/12/03 01:39:48;;;;;;;;;;;;;;;2.48;60.58;97072.37;1677243;84;20225;-84
2021/12/03 01:42:14;;;;;;;;;;;;;;;2.44;60.54;97063.98;1674011;84;24861;-84
2021/12/03 01:44:41;;;;;;;;;;;;;;;2.43;60.54;97072.65;1671552;85;21971;-84
2021/12/03 01:47:07;;;;;;;;;;;;;;;2.43;60.53;97078.27;1731581;82;25920;-83
2021/12/03 01:49:33;;;;;;;;;;;;;;;2.41;60.50;97081.39;1735281;81;24478;-83
2021/12/03 01:51:59;;;;;;;;;;;;;;;2.45;60.50;97080.31;1736869;81;20281;-83
2021/12/03 01:54:26;;;;;;;;;;;;;;;2.50;60.52;97091.20;1720407;81;25001;-84
2021/12/03 01:56:53;;;;;;;;;;;;;;;2.58;60.55;97094.59;1731107;81;20304;-83
2021/12/03 01:59:20;;;;;;;;;;;;;;;2.63;60.58;97107.61;1732830;82;25967;-83
2021/12/03 02:01:46;;;;;;;;;;;;;;;2.54;60.57;97118.48;1737334;82;24547;-82
2021/12/03 02:04:12;;;;;;;;;;;;;;;2.53;60.55;97122.81;1729193;81;20263;-83
2021/12/03 02:06:39;;;;;;;;;;;;;;;2.52;60.56;97125.02;1744697;81;24778;-83
2021/12/03 02:09:06;;;;;;;;;;;;;;;2.50;60.55;97126.88;1730139;81;22293;-82
2021/12/03 02:11:33;;;;;;;;;;;;;;;2.49;60.54;97140.70;1731870;81;26655;-83
2021/12/03 02:14:00;;;;;;;;;;;;;;;2.53;60.54;97138.77;1736821;82;24561;-83
2021/12/03 02:16:26;;;;;;;;;;;;;;;2.56;60.56;97141.65;1737606;82;20179;-83
2021/12/03 02:18:52;;;;;;;;;;;;;;;2.52;60.55;97140.98;1732529;81;24853;-83
2021/12/03 02:21:19;;;;;;;;;;;;;;;2.44;60.52;97155.64;1739341;81;22075;-83
2021/12/03 02:23:46;;;;;;;;;;;;;;;2.38;60.48;97157.73;1737379;82;25899;-83
2021/12/03 02:26:13;;;;;;;;;;;;;;;2.39;60.45;97154.24;1734939;81;24440;-83
2021/12/03 02:28:41;;;;;;;;;;;;;;;2.29;60.38;97160.86;1741205;81;20285;-83
2021/12/03 02:31:08;;;;;;;;;;;;;;;2.16;60.30;97159.42;1733916;81;24948;-83
2021/12/03 02:33:41;;;;;;;;;;;;;;;2.05;60.23;97160.48;1735731;81;23050;-83
2021/12/03 02:36:07;;;;;;;;;;;;;;;1.97;60.14;97167.35;1744313;82;26071;-83
2021/12/03 02:38:39;;;;;;;;;;;;;;;1.91;60.11;97165.11;1733972;80;24546;-83
2021/12/03 02:41:07;;;;;;;;;;;;;;;1.89;60.09;97175.98;1739345;81;20298;-83
2021/12/03 02:43:35;;;;;;;;;;;;;;;1.80;60.05;97170.52;1743823;80;25358;-83
2021/12/03 02:46:03;;;;;;;;;;;;;;;1.73;60.03;97171.30;1736775;81;20377;-84
2021/12/03 02:48:31;;;;;;;;;;;;;;;1.66;60.03;97172.09;1745282;81;26104;-82
2021/12/03 02:50:58;;;;;;;;;;;;;;;1.62;60.04;97182.66;1732662;80;24649;-83
2021/12/03 02:53:29;;;;;;;;;;;;;;;1.58;60.04;97185.84;1728252;81;20256;-84
2021/12/03 02:55:56;;;;;;;;;;;;;;;1.52;60.06;97191.35;1732332;82;24833;-83
2021/12/03 02:58:22;;;;;;;;;;;;;;;1.48;60.07;97193.70;1727739;82;22063;-83
2021/12/03 03:00:50;;;;;;;;;;;;;;;1.51;60.13;97197.88;1682952;83;26664;-83
2021/12/03 03:03:23;;;;;;;;;;;;;;;1.51;60.19;97199.99;1728626;82;25338;-83
2021/12/03 03:05:54;;;;;;;;;;;;;;;1.51;60.25;97199.16;1721235;82;20296;-83
2021/12/03 03:08:20;;;;;;;;;;;;;;;1.49;60.32;97197.94;1731901;81;24232;-83
2021/12/03 03:10:47;;;;;;;;;;;;;;;1.49;60.36;97208.25;1733465;82;20844;-83
2021/12/03 03:13:17;;;;;;;;;;;;;;;1.50;60.42;97221.52;1743411;82;25945;-83
2021/12/03 03:15:43;;;;;;;;;;;;;;;1.51;60.46;97229.64;1734384;81;24707;-83
2021/12/03 03:18:11;;;;;;;;;;;;;;;1.52;60.53;97231.31;1731750;82;20232;-82
2021/12/03 03:20:48;;;;;;;;;;;;;;;1.50;60.58;97231.84;1735400;82;24868;-83
2021/12/03 03:23:15;;;;;;;;;;;;;;;1.50;60.62;97231.00;1738805;82;22069;-83
2021/12/03 03:25:42;;;;;;;;;;;;;;;1.49;60.69;97228.88;1733208;81;26632;-83
2021/12/03 03:28:09;;;;;;;;;;;;;;;1.48;60.75;97232.81;1740490;81;24597;-83
2021/12/03 03:30:36;;;;;;;;;;;;;;;1.53;60.80;97231.66;1735416;81;20224;-83
2021/12/03 03:33:03;;;;;;;;;;;;;;;1.62;60.89;97234.22;1745005;80;25509;-83
2021/12/03 03:35:39;;;;;;;;;;;;;;;1.65;60.96;97246.94;1730865;81;21832;-83
2021/12/03 03:38:05;;;;;;;;;;;;;;;1.69;61.01;97251.84;1728232;81;26262;-83
2021/12/03 03:40:32;;;;;;;;;;;;;;;1.69;61.05;97260.07;1739348;81;24528;-82
2021/12/03 03:42:59;;;;;;;;;;;;;;;1.69;61.09;97256.20;1733567;81;20400;-83
2021/12/03 03:45:30;;;;;;;;;;;;;;;1.66;61.14;97255.89;1736334;81;24809;-83
2021/12/03 03:47:56;;;;;;;;;;;;;;;1.72;61.19;97258.60;1736058;81;22000;-83
2021/12/03 03:50:22;;;;;;;;;;;;;;;1.75;61.26;97259.72;1742164;80;26652;-83
2021/12/03 03:52:54;;;;;;;;;;;;;;;1.77;61.31;97262.22;1737068;81;24477;-83
2021/12/03 03:55:21;;;;;;;;;;;;;;;1.77;61.37;97266.09;1730629;81;20453;-83
2021/12/03 03:57:53;;;;;;;;;;;;;;;1.74;61.42;97263.69;1731361;82;24763;-82
2021/12/03 04:00:17;;;;;;;;;;;;;;;1.77;61.47;97278.98;1740460;81;22662;-83
2021/12/03 04:02:48;;;;;;;;;;;;;;;1.79;61.49;97290.06;1742397;82;25985;-82
2021/12/03 04:05:12;;;;;;;;;;;;;;;1.78;61.52;97288.39;1739894;81;24574;-82
2021/12/03 04:07:42;;;;;;;;;;;;;;;1.76;61.56;97293.63;1731701;81;20520;-83
2021/12/03 04:10:09;;;;;;;;;;;;;;;1.80;61.61;97297.70;1731763;80;24875;-82
2021/12/03 04:12:35;;;;;;;;;;;;;;;1.80;61.64;97300.27;1727034;82;22072;-82
2021/12/03 04:15:02;;;;;;;;;;;;;;;1.80;61.67;97298.18;1733860;80;26066;-82
2021/12/03 04:17:35;;;;;;;;;;;;;;;1.77;61.67;97294.00;1737886;82;20190;-82
2021/12/03 04:20:04;;;;;;;;;;;;;;;1.76;61.71;97300.06;1713934;81;20168;-82
2021/12/03 04:22:36;;;;;;;;;;;;;;;1.76;61.72;97310.38;1733301;82;25847;-83
2021/12/03 04:25:03;;;;;;;;;;;;;;;1.77;61.75;97309.48;1731751;82;22266;-82
2021/12/03 04:27:37;;;;;;;;;;;;;;;1.72;61.77;97301.16;1738474;80;26708;-82
2021/12/03 04:30:02;;;;;;;;;;;;;;;1.69;61.78;97303.91;1728079;81;24532;-82
2021/12/03 04:32:28;;;;;;;;;;;;;;;1.61;61.78;97309.91;1730193;81;20300;-82
2021/12/03 04:34:54;;;;;;;;;;;;;;;1.56;61.78;97308.86;1741821;82;24858;-83
2021/12/03 04:37:20;;;;;;;;;;;;;;;1.54;61.80;97315.83;1734965;81;21940;-82
2021/12/03 04:39:52;;;;;;;;;;;;;;;1.53;61.81;97318.02;1734807;81;21629;-82
2021/12/03 04:42:19;;;;;;;;;;;;;;;1.51;61.86;97312.59;1739278;81;24674;-83
2021/12/03 04:44:45;;;;;;;;;;;;;;;1.55;61.93;97322.66;1734917;80;20350;-83
2021/12/03 04:47:11;;;;;;;;;;;;;;;1.55;61.98;97319.24;1732491;81;24739;-83
2021/12/03 04:49:38;;;;;;;;;;;;;;;1.55;62.07;97325.23;1731354;81;21983;-83
2021/12/03 04:52:04;;;;;;;;;;;;;;;1.57;62.12;97331.61;1737303;81;26612;-83
2021/12/03 04:54:31;;;;;;;;;;;;;;;1.57;62.18;97344.05;1741029;82;24432;-82
2021/12/03 04:57:01;;;;;;;;;;;;;;;1.58;62.26;97344.89;1741146;81;20186;-83
2021/12/03 04:59:28;;;;;;;;;;;;;;;1.57;62.32;97363.84;1734445;82;24948;-83
2021/12/03 05:01:57;;;;;;;;;;;;;;;1.54;62.36;97361.41;1729685;81;22152;-83
2021/12/03 05:04:22;;;;;;;;;;;;;;;1.55;62.40;97364.36;1675121;83;25749;-83
2021/12/03 05:09:33;;;;;;;;;;;;;;;1.55;62.50;97377.25;1738814;81;20427;-83
2021/12/03 05:12:01;;;;;;;;;;;;;;;1.54;62.52;97373.00;1730956;82;20342;-83
2021/12/03 05:14:30;;;;;;;;;;;;;;;1.55;62.58;97374.67;1744110;81;22993;-82
2021/12/03 05:16:56;;;;;;;;;;;;;;;1.58;62.62;97375.34;1732118;81;26194;-82
2021/12/03 05:19:27;;;;;;;;;;;;;;;1.57;62.69;97378.86;1737541;82;20238;-82
2021/12/03 05:21:58;;;;;;;;;;;;;;;1.59;62.74;97378.30;1743000;80;20210;-82
2021/12/03 05:24:21;;;;;;;;;;;;;;;1.59;62.79;97380.05;1744427;82;24964;-82
2021/12/03 05:26:48;;;;;;;;;;;;;;;1.54;62.80;97381.57;1735003;82;21991;-83
2021/12/03 05:29:14;;;;;;;;;;;;;;;1.53;62.82;97385.51;1744825;81;26020;-83
2021/12/03 05:31:41;;;;;;;;;;;;;;;1.50;62.86;97383.94;1732841;81;24482;-83
2021/12/03 05:34:12;;;;;;;;;;;;;;;1.49;62.89;97391.73;1742568;81;20493;-82
2021/12/03 05:36:37;;;;;;;;;;;;;;;1.45;62.94;97394.09;1737191;80;24762;-83
2021/12/03 05:39:04;;;;;;;;;;;;;;;1.47;62.97;97400.02;1733579;81;22097;-83
2021/12/03 05:41:31;;;;;;;;;;;;;;;1.48;63.03;97402.95;1739049;81;26750;-83
2021/12/03 05:43:57;;;;;;;;;;;;;;;1.44;63.06;97404.02;1737732;82;24470;-83
2021/12/03 05:46:23;;;;;;;;;;;;;;;1.40;63.10;97399.48;1738880;82;20294;-83
2021/12/03 05:48:49;;;;;;;;;;;;;;;1.38;63.12;97400.01;1740156;80;24729;-83
2021/12/03 05:51:25;;;;;;;;;;;;;;;1.37;63.14;97403.49;1731230;82;22643;-83
2021/12/03 05:53:46;;;;;;;;;;;;;;;1.36;63.16;97413.90;1738096;82;26821;-83
2021/12/03 05:56:12;;;;;;;;;;;;;;;1.41;63.21;97415.34;1737892;81;24418;-83
2021/12/03 05:58:38;;;;;;;;;;;;;;;1.41;63.25;97416.63;1739430;82;20223;-83
2021/12/03 06:01:04;;;;;;;;;;;;;;;1.41;63.27;97424.36;1737712;81;20741;-83
2021/12/03 06:03:34;;;;;;;;;;;;;;;1.40;63.32;97434.73;1729714;82;22194;-82
2021/12/03 06:06:00;;;;;;;;;;;;;;;1.42;63.36;97438.09;1737478;81;26003;-83
2021/12/03 06:08:31;;;;;;;;;;;;;;;1.44;63.40;97439.66;1655060;85;20696;-83
2021/12/03 06:11:01;;;;;;;;;;;;;;;1.49;63.47;97448.00;1671558;85;20192;-83
2021/12/03 06:13:26;;;;;;;;;;;;;;;1.55;63.53;97450.73;1737836;81;24748;-83
2021/12/03 06:15:54;;;;;;;;;;;;;;;1.54;63.57;97443.90;1737540;82;22096;-83
2021/12/03 06:18:20;;;;;;;;;;;;;;;1.54;63.62;97452.47;1741467;81;25942;-83
2021/12/03 06:20:46;;;;;;;;;;;;;;;1.48;63.61;97463.08;1738099;81;20253;-83
2021/12/03 06:23:12;;;;;;;;;;;;;;;1.38;63.57;97460.58;1734939;82;20737;-83
2021/12/03 06:25:38;;;;;;;;;;;;;;;1.37;63.58;97464.52;1744461;82;25557;-83
2021/12/03 06:28:04;;;;;;;;;;;;;;;1.37;63.62;97469.22;1742730;82;21969;-83
2021/12/03 06:30:30;;;;;;;;;;;;;;;1.40;63.65;97473.41;1735853;81;25955;-83
2021/12/03 06:33:02;;;;;;;;;;;;;;;1.34;63.66;97479.69;1740110;81;24505;-83
2021/12/03 06:35:24;;;;;;;;;;;;;;;1.29;63.66;97485.97;1742038;82;20216;-83
2021/12/03 06:37:56;;;;;;;;;;;;;;;1.24;63.67;97483.63;1730245;81;24924;-83
2021/12/03 06:40:23;;;;;;;;;;;;;;;1.22;63.71;97491.41;1733809;82;22141;-83
2021/12/03 06:42:51;;;;;;;;;;;;;;;1.23;63.74;97496.12;1740770;81;26997;-83
2021/12/03 06:45:17;;;;;;;;;;;;;;;1.31;63.78;97503.50;1738228;81;24403;-82
2021/12/03 06:47:43;;;;;;;;;;;;;;;1.39;63.85;97508.66;1741579;82;20266;-82
2021/12/03 06:50:12;;;;;;;;;;;;;;;1.39;63.93;97515.55;1735932;81;24844;-83
2021/12/03 06:52:46;;;;;;;;;;;;;;;1.36;63.96;97523.44;1740587;81;22033;-83
2021/12/03 06:55:14;;;;;;;;;;;;;;;1.36;64.01;97519.58;1735021;82;26844;-83
2021/12/03 06:57:44;;;;;;;;;;;;;;;1.42;64.06;97517.51;1717272;81;24203;-82
2021/12/03 07:00:11;;;;;;;;;;;;;;;1.47;64.11;97521.19;1744963;82;20241;-83
2021/12/03 07:02:37;;;;;;;;;;;;;;;1.42;64.15;97525.24;1742264;81;24801;-83
2021/12/03 07:05:04;;;;;;;;;;;;;;;1.42;64.19;97533.46;1740916;81;22906;-83
2021/12/03 07:07:31;;;;;;;;;;;;;;;1.33;64.20;97541.61;1732968;81;26034;-83
2021/12/03 07:09:57;;;;;;;;;;;;;;;1.29;64.19;97546.53;1680182;83;24615;-83
2021/12/03 07:12:25;;;;;;;;;;;;;;;1.30;64.25;97548.21;1664773;84;20465;-83
2021/12/03 07:14:54;;;;;;;;;;;;;;;1.31;64.29;97551.98;1666605;84;24782;-83
2021/12/03 07:17:20;;;;;;;;;;;;;;;1.23;64.32;97546.37;1669431;84;22187;-83
2021/12/03 07:19:46;;;;;;;;;;;;;;;1.14;64.30;97555.83;1675255;85;26027;-82
2021/12/03 07:22:12;;;;;;;;;;;;;;;1.15;64.33;97556.18;1674248;84;20317;-83
2021/12/03 07:24:38;;;;;;;;;;;;;;;1.14;64.36;97557.95;1684059;84;20349;-82
2021/12/03 07:27:05;;;;;;;;;;;;;;;1.08;64.36;97563.83;1678128;84;24729;-83
2021/12/03 07:29:32;;;;;;;;;;;;;;;1.03;64.37;97560.19;1663633;84;21959;-83
2021/12/03 07:31:58;;;;;;;;;;;;;;;1.04;64.41;97564.85;1670467;83;26907;-83
2021/12/03 07:34:24;;;;;;;;;;;;;;;0.99;64.40;97572.80;1675396;84;24642;-83
2021/12/03 07:36:52;;;;;;;;;;;;;;;0.97;64.41;97575.91;1687349;83;20207;-83
2021/12/03 07:39:18;;;;;;;;;;;;;;;0.93;64.44;97579.52;1690058;83;20289;-83
2021/12/03 07:41:44;;;;;;;;;;;;;;;0.95;64.45;97585.44;1676415;85;22788;-83
2021/12/03 07:44:10;;;;;;;;;;;;;;;0.94;64.49;97586.34;1692019;82;26005;-82
2021/12/03 07:46:36;;;;;;;;;;;;;;;0.94;64.52;97592.78;1698495;82;20925;-82
2021/12/03 07:49:03;;;;;;;;;;;;;;;1.01;64.60;97595.47;1684922;83;20311;-82
2021/12/03 07:51:29;;;;;;;;;;;;;;;1.06;64.67;97599.13;1683552;83;24754;-83
2021/12/03 07:53:55;;;;;;;;;;;;;;;1.07;64.73;97600.35;1734152;82;22111;-82
2021/12/03 07:56:21;;;;;;;;;;;;;;;1.10;64.78;97609.22;1732279;82;26045;-82
2021/12/03 07:58:47;;;;;;;;;;;;;;;1.14;64.83;97612.06;1732739;81;24481;-82
2021/12/03 08:01:14;;;;;;;;;;;;;;;1.20;64.90;97615.62;1731907;82;20268;-82
2021/12/03 08:03:39;;;;;;;;;;;;;;;1.21;64.94;97619.88;1733895;81;24795;-82
2021/12/03 08:06:09;;;;;;;;;;;;;;;1.30;65.02;97622.95;1741815;82;20329;-82
2021/12/03 08:08:34;;;;;;;;;;;;;;;1.35;65.07;97628.73;1735808;80;25996;-82
2021/12/03 08:11:00;;;;;;;;;;;;;;;1.46;65.15;97626.49;1734397;81;24696;-84
2021/12/03 08:13:26;;;;;;;;;;;;;;;1.54;65.21;97632.11;1736743;81;20278;-82
2021/12/03 08:15:52;;;;;;;;;;;;;;;1.51;65.24;97637.42;1686071;83;20222;-82
2021/12/03 08:18:20;;;;;;;;;;;;;;;1.49;65.27;97642.64;1682812;84;20184;-83
2021/12/03 08:20:53;;;;;;;;;;;;;;;1.46;65.27;97641.95;1676030;84;26209;-82
2021/12/03 08:23:19;;;;;;;;;;;;;;;1.49;65.29;97649.54;1665018;84;24533;-82
2021/12/03 08:25:45;;;;;;;;;;;;;;;1.55;65.33;97638.95;1674778;84;20386;-83
2021/12/03 08:28:11;;;;;;;;;;;;;;;1.53;65.35;97647.19;1691894;83;24963;-82
2021/12/03 08:30:40;;;;;;;;;;;;;;;1.46;65.37;97650.53;1675531;84;22947;-83
2021/12/03 08:33:06;;;;;;;;;;;;;;;1.50;65.39;97657.21;1669575;84;26148;-82
2021/12/03 08:35:35;;;;;;;;;;;;;;;1.52;65.42;97659.73;1675012;84;20244;-82
2021/12/03 08:38:02;;;;;;;;;;;;;;;1.52;65.44;97660.56;1674637;85;20512;-82
2021/12/03 08:40:30;;;;;;;;;;;;;;;1.57;65.44;97659.06;1673180;84;24844;-82
2021/12/03 08:42:56;;;;;;;;;;;;;;;1.59;65.47;97664.52;1673936;84;22011;-82
2021/12/03 08:45:22;;;;;;;;;;;;;;;1.63;65.50;97666.52;1669204;85;26732;-82
2021/12/03 08:47:53;;;;;;;;;;;;;;;1.62;65.52;97667.41;1677952;84;24468;-83
2021/12/03 08:50:28;;;;;;;;;;;;;;;1.59;65.55;97676.56;1667169;85;20294;-82
2021/12/03 08:53:04;;;;;;;;;;;;;;;1.57;65.52;97679.69;1673687;84;24800;-82
2021/12/03 08:55:14;;;;;;;;;;;;;;;1.56;65.56;97679.30;1675334;83;22283;-82
2021/12/03 08:57:41;;;;;;;;;;;;;;;1.62;65.59;97686.30;1679234;84;25987;-83
2021/12/03 09:00:10;;;;;;;;;;;;;;;1.68;65.67;97692.47;1673633;84;24886;-82
2021/12/03 09:02:38;;;;;;;;;;;;;;;1.85;65.72;97690.41;1678781;84;20378;-82
2021/12/03 09:05:05;;;;;;;;;;;;;;;2.00;65.80;97690.96;1670548;84;24786;-81
2021/12/03 09:07:31;;;;;;;;;;;;;;;2.10;65.82;97695.22;1675470;84;21974;-82
2021/12/03 09:09:57;;;;;;;;;;;;;;;2.09;65.84;97694.38;1686352;84;26097;-82
2021/12/03 09:12:23;;;;;;;;;;;;;;;2.10;65.84;97702.97;1686843;84;24535;-82
2021/12/03 09:14:56;;;;;;;;;;;;;;;2.13;65.85;97700.70;1678742;84;20235;-82
2021/12/03 09:20:02;;;;;;;;;;;;;;;2.06;65.79;97712.61;1657329;85;22054;-82
2021/12/03 09:22:32;;;;;;;;;;;;;;;2.14;65.79;97712.67;1689080;83;25932;-82
2021/12/03 09:24:47;;;;;;;;;;;;;;;2.22;65.79;97716.58;1703937;83;24681;-82
2021/12/03 09:27:15;;;;;;;;;;;;;;;2.30;65.81;97716.19;1690448;83;20260;-82
2021/12/03 09:29:42;;;;;;;;;;;;;;;2.28;65.79;97712.88;1692938;82;25619;-82
2021/12/03 09:32:08;;;;;;;;;;;;;;;2.18;65.73;97707.32;1738133;81;21505;-82
2021/12/03 09:34:35;;;;;;;;;;;;;;;2.18;65.66;97711.19;1738102;80;26020;-82
2021/12/03 09:37:02;;;;;;;;;;;;;;;2.21;65.60;97708.91;1731118;82;24485;-82
2021/12/03 09:39:34;;;;;;;;;;;;;;;2.27;65.58;97712.03;1748594;81;20604;-82
2021/12/03 09:41:58;;;;;;;;;;;;;;;2.27;65.52;97709.90;1740294;81;24780;-82
2021/12/03 09:44:26;;;;;;;;;;;;;;;2.24;65.46;97703.12;1738196;82;21858;-82
2021/12/03 09:46:53;;;;;;;;;;;;;;;2.24;65.41;97701.00;1737562;81;26123;-82
2021/12/03 09:49:30;;;;;;;;;;;;;;;2.15;65.33;97703.58;1734323;82;24550;-82
2021/12/03 09:54:30;;;;;;;;;;;;;;;2.19;65.32;97693.48;1727173;82;24797;-83
2021/12/03 09:57:02;;;;;;;;;;;;;;;2.27;65.33;97686.67;1735373;81;22558;-83
2021/12/03 10:02:07;;;;;;;;;;;;;;;2.27;65.23;97693.13;1727035;81;24572;-82
2021/12/03 10:15:31;;;;;;;;;;;;;;;2.35;64.94;97679.37;1734200;82;24616;-82
2021/12/03 10:31:55;;;;;;;;;;;;;;;2.30;64.64;97661.98;1746530;81;20490;-83
2021/12/03 10:36:38;;;;;;;;;;;;;;;2.24;64.48;97670.86;1713692;80;22011;-83
2021/12/03 10:39:36;;;;;;;;;;;;;;;2.25;64.41;97669.11;1727514;82;25391;-82
2021/12/03 10:41:51;;;;;;;;;;;;;;;2.30;64.39;97663.27;1740828;81;24425;-83
2021/12/03 10:46:55;;;;;;;;;;;;;;;2.23;64.23;97676.95;1700518;82;24766;-83
2021/12/03 11:38:36;;;;;;;;;;;;;;;2.52;63.12;97663.43;1740471;80;20353;-82
2021/12/03 12:00:10;;;;;;;;;;;;;;;2.58;61.99;97663.58;1729967;81;26256;-82
2021/12/03 13:19:07;;;;;;;;;;;;;;;3.12;57.44;97704.31;1735314;82;22776;-84
2021/12/03 13:30:00;;;;;;;;;;;;;;;2.97;56.72;97713.70;1720022;81;20595;-84
2021/12/03 13:56:57;;;;;;;;;;;;;;;2.43;55.80;97729.74;1733043;81;24879;-83
2021/12/03 13:59:26;;;;;;;;;;;;;;;2.38;55.73;97733.45;1741741;81;22080;-83
2021/12/03 14:09:53;;;;;;;;;;;;;;;2.15;55.58;97747.45;1713237;81;24838;-83
2021/12/03 14:15:46;;;;;;;;;;;;;;;2.04;55.53;97755.70;1737570;82;26025;-83
2021/12/03 14:21:51;;;;;;;;;;;;;;;1.96;55.50;97764.27;1734712;81;20246;-84
2021/12/03 14:41:57;;;;;;;;;;;;;;;1.56;55.54;97777.28;1739178;80;26086;-82
2021/12/03 14:55:00;;;;;;;;;;;;;;;1.36;55.56;97779.91;1739660;80;25936;-83
2021/12/03 15:00:30;;;;;;;;;;;;;;;1.32;55.58;97775.77;1738112;80;20306;-83
2021/12/03 15:05:55;;;;;;;;;;;;;;;1.25;55.63;97785.52;1727524;82;21389;-84
2021/12/03 15:08:24;;;;;;;;;;;;;;;1.20;55.66;97783.12;1724406;81;27023;-83
2021/12/03 15:13:32;;;;;;;;;;;;;;;1.16;55.72;97786.73;1737953;82;20376;-83
2021/12/03 15:21:27;;;;;;;;;;;;;;;1.04;55.81;97785.96;1740139;82;26030;-83
2021/12/03 15:26:34;;;;;;;;;;;;;;;0.94;55.84;97794.98;1736826;82;20292;-83
2021/12/03 15:36:36;;;;;;;;;;;;;;;0.82;55.94;97804.49;1728728;81;24477;-83
2021/12/03 15:39:02;;;;;;;;;;;;;;;0.84;56.01;97803.99;1730357;81;20212;-83
2021/12/03 15:41:34;;;;;;;;;;;;;;;0.81;56.07;97799.83;1721962;81;24787;-83
2021/12/03 15:52:34;;;;;;;;;;;;;;;0.79;56.23;97811.08;1745645;82;20227;-83
2021/12/03 15:57:38;;;;;;;;;;;;;;;0.80;56.30;97815.33;1743129;81;21982;-83
2021/12/03 16:08:10;;;;;;;;;;;;;;;0.74;56.50;97824.59;1729158;81;24754;-83
2021/12/03 16:10:46;;;;;;;;;;;;;;;0.71;56.48;97827.30;1735624;81;22793;-83
2021/12/03 16:13:18;;;;;;;;;;;;;;;0.67;56.51;97830.42;1736995;81;26081;-83
2021/12/03 16:16:20;;;;;;;;;;;;;;;0.68;56.54;97831.27;1743693;81;25122;-83
2021/12/03 16:53:34;;;;;;;;;;;;;;;0.50;56.70;97841.00;1738844;81;25966;-83
2021/12/03 16:58:36;;;;;;;;;;;;;;;0.53;56.70;97841.73;1738770;81;20533;-83
2021/12/03 17:01:52;;;;;;;;;;;;;;;0.53;56.66;97844.31;1732536;82;24739;-83
2021/12/03 17:09:11;;;;;;;;;;;;;;;0.57;56.62;97857.44;1740455;82;24444;-83
2021/12/03 17:54:58;;;;;;;;;;;;;;;0.49;56.22;97870.23;1741488;81;24902;-83
2021/12/03 17:59:48;;;;;;;;;;;;;;;0.46;56.18;97867.31;1740193;81;26176;-83
2021/12/03 18:02:31;;;;;;;;;;;;;;;0.46;56.19;97872.46;1739834;82;24554;-83
2021/12/03 18:13:03;;;;;;;;;;;;;;;0.51;56.12;97870.99;1743312;81;26138;-83
2021/12/03 18:55:57;;;;;;;;;;;;;;;0.38;55.69;97847.01;1737787;81;24342;-83
2021/12/03 18:58:26;;;;;;;;;;;;;;;0.38;55.66;97844.91;1732234;82;20226;-83
2021/12/03 19:00:55;;;;;;;;;;;;;;;0.32;55.63;97847.27;1726377;81;20238;-83
2021/12/03 19:03:31;;;;;;;;;;;;;;;0.26;55.62;97843.64;1738114;81;22420;-83
2021/12/03 19:09:15;;;;;;;;;;;;;;;0.31;55.63;97835.74;1733487;82;24447;-83
2021/12/03 19:11:02;;;;;;;;;;;;;;;0.31;55.63;97837.03;1672937;83;20256;-83
2021/12/03 19:13:26;;;;;;;;;;;;;;;0.29;55.63;97837.08;1679964;84;25488;-83
2021/12/03 19:15:49;;;;;;;;;;;;;;;0.25;55.64;97830.38;1679378;83;22047;-83
2021/12/03 19:18:23;;;;;;;;;;;;;;;0.24;55.60;97831.72;1674813;85;26960;-83
2021/12/03 19:20:51;;;;;;;;;;;;;;;0.26;55.63;97834.64;1669942;85;24546;-83
2021/12/03 19:23:18;;;;;;;;;;;;;;;0.28;55.64;97833.27;1668662;84;20228;-83
2021/12/03 19:25:44;;;;;;;;;;;;;;;0.27;55.65;97835.00;1690177;84;24276;-83
2021/12/03 19:28:10;;;;;;;;;;;;;;;0.26;55.66;97837.66;1688177;84;22082;-83
2021/12/03 19:30:36;;;;;;;;;;;;;;;0.27;55.70;97844.01;1687161;84;26005;-83
2021/12/03 19:33:02;;;;;;;;;;;;;;;0.27;55.70;97845.30;1685527;84;24456;-83
2021/12/03 19:35:28;;;;;;;;;;;;;;;0.30;55.69;97854.20;1690614;84;20381;-83
2021/12/03 19:37:57;;;;;;;;;;;;;;;0.30;55.71;97855.48;1684027;84;20251;-83
2021/12/03 19:40:23;;;;;;;;;;;;;;;0.25;55.73;97855.27;1689421;84;22021;-83
2021/12/03 19:43:04;;;;;;;;;;;;;;;0.23;55.75;97856.61;1688033;84;25942;-83
2021/12/03 19:45:31;;;;;;;;;;;;;;;0.24;55.79;97857.45;1687893;83;23871;-83
2021/12/03 19:47:59;;;;;;;;;;;;;;;0.15;55.82;97837.23;1687794;84;20226;-83
2021/12/03 19:52:59;;;;;;;;;;;;;;;0.23;55.83;97850.17;1689324;84;22077;-83
2021/12/03 19:55:24;;;;;;;;;;;;;;;0.26;55.84;97856.95;1675982;84;26053;-83
2021/12/03 19:57:50;;;;;;;;;;;;;;;0.25;55.85;97851.41;1691775;84;25336;-83
2021/12/03 20:00:16;;;;;;;;;;;;;;;0.23;55.86;97845.47;1689083;84;20301;-83
2021/12/03 20:02:43;;;;;;;;;;;;;;;0.21;55.89;97839.13;1690859;84;24870;-84
2021/12/03 20:05:09;;;;;;;;;;;;;;;0.25;55.93;97844.98;1691649;84;22043;-83
2021/12/03 20:07:35;;;;;;;;;;;;;;;0.22;55.95;97844.63;1684526;84;26001;-83
2021/12/03 20:10:09;;;;;;;;;;;;;;;0.22;55.98;97839.97;1689963;84;24488;-83
2021/12/03 20:12:33;;;;;;;;;;;;;;;0.22;55.98;97839.48;1699836;83;20280;-83
2021/12/03 20:15:02;;;;;;;;;;;;;;;0.26;56.00;97835.08;1680426;85;24801;-83
2021/12/03 20:17:36;;;;;;;;;;;;;;;0.26;56.03;97833.35;1684567;85;22008;-84
2021/12/03 20:20:03;;;;;;;;;;;;;;;0.27;56.04;97841.44;1669805;84;26645;-84
2021/12/03 20:27:41;;;;;;;;;;;;;;;0.19;56.13;97840.91;1738649;81;24938;-84
2021/12/03 20:30:04;;;;;;;;;;;;;;;0.21;56.16;97839.13;1736413;81;22021;-83
2021/12/03 20:35:23;;;;;;;;;;;;;;;0.28;56.19;97840.55;1746809;80;24521;-82